sensor_id;sensor_type;location;lat;lon;timestamp;temperature;humidity
10572;DHT22;5334;48.928;12.704;2023-07-13T00:00:12;20.70;99.90
10572;DHT22;5334;48.928;12.704;2023-07-13T00:02:41;20.70;99.90
10572;DHT22;5334;48.928;12.704;2023-07-13T00:05:07;20.70;99.90
10572;DHT22;5334;48.928;12.704;2023-07-13T00:07:34;20.70;99.90
10572;DHT22;5334;48.928;12.704;2023-07-13T00:10:00;20.80;99.90
10572;DHT22;5334;48.928;12.704;2023-07-13T00:12:33;20.80;99.90
10572;DHT22;5334;48.928;12.704;2023-07-13T00:15:00;20.80;99.90
10572;DHT22;5334;48.928;12.704;2023-07-13T00:17:27;20.80;99.90
10572;DHT22;5334;48.928;12.704;2023-07-13T00:19:53;20.80;99.90
10572;DHT22;5334;48.928;12.704;2023-07-13T00:22:19;20.80;99.90
10572;DHT22;5334;48.928;12.704;2023-07-13T00:24:45;20.80;99.90
10572;DHT22;5334;48.928;12.704;2023-07-13T00:27:11;20.80;99.90
10572;DHT22;5334;48.928;12.704;2023-07-13T00:29:37;20.80;99.90
10572;DHT22;5334;48.928;12.704;2023-07-13T00:32:07;20.70;99.90
10572;DHT22;5334;48.928;12.704;2023-07-13T00:34:37;19.70;99.90
10572;DHT22;5334;48.928;12.704;2023-07-13T00:37:04;20.60;99.90
10572;DHT22;5334;48.928;12.704;2023-07-13T00:39:32;20.60;99.90
10572;DHT22;5334;48.928;12.704;2023-07-13T00:41:58;20.60;99.90
10572;DHT22;5334;48.928;12.704;2023-07-13T00:44:24;20.50;99.90
10572;DHT22;5334;48.928;12.704;2023-07-13T00:46:50;20.50;99.90
10572;DHT22;5334;48.928;12.704;2023-07-13T00:49:19;20.30;99.90
10572;DHT22;5334;48.928;12.704;2023-07-13T00:51:57;20.50;99.90
10572;DHT22;5334;48.928;12.704;2023-07-13T00:54:36;20.80;99.90
10572;DHT22;5334;48.928;12.704;2023-07-13T00:57:05;20.50;99.90
10572;DHT22;5334;48.928;12.704;2023-07-13T00:59:34;20.40;99.90
10572;DHT22;5334;48.928;12.704;2023-07-13T01:02:00;20.50;99.90
10572;DHT22;5334;48.928;12.704;2023-07-13T01:04:26;20.40;99.90
10572;DHT22;5334;48.928;12.704;2023-07-13T01:09:19;20.40;99.90
10572;DHT22;5334;48.928;12.704;2023-07-13T01:11:45;20.40;99.90
10572;DHT22;5334;48.928;12.704;2023-07-13T01:14:11;20.30;99.90
10572;DHT22;5334;48.928;12.704;2023-07-13T01:16:37;20.30;99.90
10572;DHT22;5334;48.928;12.704;2023-07-13T01:19:25;20.30;99.90
10572;DHT22;5334;48.928;12.704;2023-07-13T01:21:55;20.20;99.90
10572;DHT22;5334;48.928;12.704;2023-07-13T01:24:20;20.20;99.90
10572;DHT22;5334;48.928;12.704;2023-07-13T01:26:46;20.10;99.90
10572;DHT22;5334;48.928;12.704;2023-07-13T01:29:12;20.10;99.90
10572;DHT22;5334;48.928;12.704;2023-07-13T01:31:37;20.10;99.90
10572;DHT22;5334;48.928;12.704;2023-07-13T01:34:03;20.10;99.90
10572;DHT22;5334;48.928;12.704;2023-07-13T01:36:29;20.10;99.90
10572;DHT22;5334;48.928;12.704;2023-07-13T01:38:54;20.00;99.90
10572;DHT22;5334;48.928;12.704;2023-07-13T01:41:20;20.00;99.90
10572;DHT22;5334;48.928;12.704;2023-07-13T01:43:46;20.00;99.90
10572;DHT22;5334;48.928;12.704;2023-07-13T01:46:11;20.00;99.90
10572;DHT22;5334;48.928;12.704;2023-07-13T01:48:37;20.00;99.90
10572;DHT22;5334;48.928;12.704;2023-07-13T01:51:03;20.60;99.90
10572;DHT22;5334;48.928;12.704;2023-07-13T01:53:28;19.90;99.90
10572;DHT22;5334;48.928;12.704;2023-07-13T01:55:54;20.10;99.90
10572;DHT22;5334;48.928;12.704;2023-07-13T01:58:20;20.10;99.90
10572;DHT22;5334;48.928;12.704;2023-07-13T02:00:48;20.00;99.90
10572;DHT22;5334;48.928;12.704;2023-07-13T02:03:14;19.90;99.90
10572;DHT22;5334;48.928;12.704;2023-07-13T02:05:43;19.90;99.90
10572;DHT22;5334;48.928;12.704;2023-07-13T02:08:09;19.90;99.90
10572;DHT22;5334;48.928;12.704;2023-07-13T02:10:36;19.90;99.90
10572;DHT22;5334;48.928;12.704;2023-07-13T02:13:03;19.90;99.90
10572;DHT22;5334;48.928;12.704;2023-07-13T02:15:29;19.80;99.90
10572;DHT22;5334;48.928;12.704;2023-07-13T02:17:54;19.60;99.90
10572;DHT22;5334;48.928;12.704;2023-07-13T02:20:20;19.80;99.90
10572;DHT22;5334;48.928;12.704;2023-07-13T02:22:46;19.80;99.90
10572;DHT22;5334;48.928;12.704;2023-07-13T02:25:12;19.90;99.90
10572;DHT22;5334;48.928;12.704;2023-07-13T02:27:37;19.90;99.90
10572;DHT22;5334;48.928;12.704;2023-07-13T02:30:03;19.90;99.90
10572;DHT22;5334;48.928;12.704;2023-07-13T02:32:29;19.90;99.90
10572;DHT22;5334;48.928;12.704;2023-07-13T02:34:55;19.90;99.90
10572;DHT22;5334;48.928;12.704;2023-07-13T02:37:20;19.90;99.90
10572;DHT22;5334;48.928;12.704;2023-07-13T02:39:46;19.90;99.90
10572;DHT22;5334;48.928;12.704;2023-07-13T02:42:13;19.90;99.90
10572;DHT22;5334;48.928;12.704;2023-07-13T02:44:39;19.80;99.90
10572;DHT22;5334;48.928;12.704;2023-07-13T02:47:04;19.90;99.90
10572;DHT22;5334;48.928;12.704;2023-07-13T02:49:30;19.90;99.90
10572;DHT22;5334;48.928;12.704;2023-07-13T02:51:56;19.90;99.90
10572;DHT22;5334;48.928;12.704;2023-07-13T02:54:21;20.00;99.90
10572;DHT22;5334;48.928;12.704;2023-07-13T02:56:47;19.90;99.90
10572;DHT22;5334;48.928;12.704;2023-07-13T02:59:13;20.00;99.90
10572;DHT22;5334;48.928;12.704;2023-07-13T03:01:38;20.10;99.90
10572;DHT22;5334;48.928;12.704;2023-07-13T03:04:04;20.00;99.90
10572;DHT22;5334;48.928;12.704;2023-07-13T03:06:32;20.00;99.90
10572;DHT22;5334;48.928;12.704;2023-07-13T03:08:57;20.00;99.90
10572;DHT22;5334;48.928;12.704;2023-07-13T03:11:23;20.00;99.90
10572;DHT22;5334;48.928;12.704;2023-07-13T03:13:49;20.00;99.90
10572;DHT22;5334;48.928;12.704;2023-07-13T03:16:15;20.10;99.90
10572;DHT22;5334;48.928;12.704;2023-07-13T03:18:41;20.00;99.90
10572;DHT22;5334;48.928;12.704;2023-07-13T03:21:07;20.00;99.90
10572;DHT22;5334;48.928;12.704;2023-07-13T03:23:33;19.90;99.90
10572;DHT22;5334;48.928;12.704;2023-07-13T03:26:09;20.00;99.90
10572;DHT22;5334;48.928;12.704;2023-07-13T03:28:35;20.10;99.90
10572;DHT22;5334;48.928;12.704;2023-07-13T03:31:06;19.10;99.90
10572;DHT22;5334;48.928;12.704;2023-07-13T03:33:32;20.00;99.90
10572;DHT22;5334;48.928;12.704;2023-07-13T03:35:58;19.90;99.90
10572;DHT22;5334;48.928;12.704;2023-07-13T03:38:24;19.90;99.90
10572;DHT22;5334;48.928;12.704;2023-07-13T03:40:49;19.90;99.90
10572;DHT22;5334;48.928;12.704;2023-07-13T03:43:15;19.90;99.90
10572;DHT22;5334;48.928;12.704;2023-07-13T03:45:41;19.90;99.90
10572;DHT22;5334;48.928;12.704;2023-07-13T03:50:33;19.90;99.90
10572;DHT22;5334;48.928;12.704;2023-07-13T03:53:00;19.90;99.90
10572;DHT22;5334;48.928;12.704;2023-07-13T03:55:26;19.80;99.90
10572;DHT22;5334;48.928;12.704;2023-07-13T03:57:58;19.80;99.90
10572;DHT22;5334;48.928;12.704;2023-07-13T04:00:24;19.90;99.90
10572;DHT22;5334;48.928;12.704;2023-07-13T04:02:50;19.80;99.90
10572;DHT22;5334;48.928;12.704;2023-07-13T04:05:16;19.90;99.90
10572;DHT22;5334;48.928;12.704;2023-07-13T04:07:42;19.80;99.90
10572;DHT22;5334;48.928;12.704;2023-07-13T04:10:08;19.80;99.90
10572;DHT22;5334;48.928;12.704;2023-07-13T04:12:34;19.80;99.90
10572;DHT22;5334;48.928;12.704;2023-07-13T04:14:59;19.70;99.90
10572;DHT22;5334;48.928;12.704;2023-07-13T04:17:25;19.90;99.90
10572;DHT22;5334;48.928;12.704;2023-07-13T04:19:51;20.00;99.90
10572;DHT22;5334;48.928;12.704;2023-07-13T04:22:16;20.00;99.90
10572;DHT22;5334;48.928;12.704;2023-07-13T04:24:42;20.00;99.90
10572;DHT22;5334;48.928;12.704;2023-07-13T04:27:08;20.00;99.90
10572;DHT22;5334;48.928;12.704;2023-07-13T04:29:33;20.70;99.90
10572;DHT22;5334;48.928;12.704;2023-07-13T04:31:59;20.00;99.90
10572;DHT22;5334;48.928;12.704;2023-07-13T04:34:25;20.10;99.90
10572;DHT22;5334;48.928;12.704;2023-07-13T04:36:50;20.10;99.90
10572;DHT22;5334;48.928;12.704;2023-07-13T04:39:16;20.20;99.90
10572;DHT22;5334;48.928;12.704;2023-07-13T04:41:42;20.00;99.90
10572;DHT22;5334;48.928;12.704;2023-07-13T04:44:08;20.10;99.90
10572;DHT22;5334;48.928;12.704;2023-07-13T04:46:33;20.10;99.90
10572;DHT22;5334;48.928;12.704;2023-07-13T04:48:59;20.20;99.90
10572;DHT22;5334;48.928;12.704;2023-07-13T04:51:26;20.10;99.90
10572;DHT22;5334;48.928;12.704;2023-07-13T04:53:52;20.20;99.90
10572;DHT22;5334;48.928;12.704;2023-07-13T04:56:17;20.20;99.90
10572;DHT22;5334;48.928;12.704;2023-07-13T04:58:45;20.10;99.90
10572;DHT22;5334;48.928;12.704;2023-07-13T05:01:10;20.10;99.90
10572;DHT22;5334;48.928;12.704;2023-07-13T05:03:36;20.00;99.90
10572;DHT22;5334;48.928;12.704;2023-07-13T05:06:07;20.10;99.90
10572;DHT22;5334;48.928;12.704;2023-07-13T05:08:35;20.10;99.90
10572;DHT22;5334;48.928;12.704;2023-07-13T05:11:01;20.10;99.90
10572;DHT22;5334;48.928;12.704;2023-07-13T05:13:27;20.20;99.90
10572;DHT22;5334;48.928;12.704;2023-07-13T05:16:02;20.10;99.90
10572;DHT22;5334;48.928;12.704;2023-07-13T05:18:28;20.10;99.90
10572;DHT22;5334;48.928;12.704;2023-07-13T05:21:02;20.00;99.90
10572;DHT22;5334;48.928;12.704;2023-07-13T05:23:28;20.00;99.90
10572;DHT22;5334;48.928;12.704;2023-07-13T05:25:54;20.00;99.90
10572;DHT22;5334;48.928;12.704;2023-07-13T05:28:21;19.90;99.90
10572;DHT22;5334;48.928;12.704;2023-07-13T05:30:48;19.90;99.90
10572;DHT22;5334;48.928;12.704;2023-07-13T05:33:14;20.00;99.90
10572;DHT22;5334;48.928;12.704;2023-07-13T05:35:40;19.80;99.90
10572;DHT22;5334;48.928;12.704;2023-07-13T05:38:05;19.90;99.90
10572;DHT22;5334;48.928;12.704;2023-07-13T05:40:32;19.80;99.90
10572;DHT22;5334;48.928;12.704;2023-07-13T05:42:57;19.50;99.90
10572;DHT22;5334;48.928;12.704;2023-07-13T05:45:23;20.10;99.90
10572;DHT22;5334;48.928;12.704;2023-07-13T05:47:48;19.60;99.90
10572;DHT22;5334;48.928;12.704;2023-07-13T05:50:14;19.60;99.90
10572;DHT22;5334;48.928;12.704;2023-07-13T05:52:40;19.60;99.90
10572;DHT22;5334;48.928;12.704;2023-07-13T05:55:05;19.50;99.90
10572;DHT22;5334;48.928;12.704;2023-07-13T05:57:31;19.50;99.90
10572;DHT22;5334;48.928;12.704;2023-07-13T05:59:57;19.50;99.90
10572;DHT22;5334;48.928;12.704;2023-07-13T06:02:23;19.50;99.90
10572;DHT22;5334;48.928;12.704;2023-07-13T06:04:48;19.40;99.90
10572;DHT22;5334;48.928;12.704;2023-07-13T06:07:14;19.60;99.90
10572;DHT22;5334;48.928;12.704;2023-07-13T06:09:40;19.70;99.90
10572;DHT22;5334;48.928;12.704;2023-07-13T06:12:06;19.70;99.90
10572;DHT22;5334;48.928;12.704;2023-07-13T06:14:32;19.80;99.90
10572;DHT22;5334;48.928;12.704;2023-07-13T06:16:58;19.70;99.90
10572;DHT22;5334;48.928;12.704;2023-07-13T06:19:23;19.70;99.90
10572;DHT22;5334;48.928;12.704;2023-07-13T06:21:49;19.70;99.90
10572;DHT22;5334;48.928;12.704;2023-07-13T06:24:15;19.90;99.90
10572;DHT22;5334;48.928;12.704;2023-07-13T06:26:40;19.80;99.90
10572;DHT22;5334;48.928;12.704;2023-07-13T06:29:06;20.00;99.90
10572;DHT22;5334;48.928;12.704;2023-07-13T06:31:32;20.20;99.90
10572;DHT22;5334;48.928;12.704;2023-07-13T06:33:57;20.30;99.90
10572;DHT22;5334;48.928;12.704;2023-07-13T06:36:23;20.40;99.90
10572;DHT22;5334;48.928;12.704;2023-07-13T06:38:49;20.50;99.90
10572;DHT22;5334;48.928;12.704;2023-07-13T06:41:14;20.70;99.90
10572;DHT22;5334;48.928;12.704;2023-07-13T06:43:40;20.70;99.90
10572;DHT22;5334;48.928;12.704;2023-07-13T06:46:06;20.60;99.90
10572;DHT22;5334;48.928;12.704;2023-07-13T06:48:31;20.60;99.90
10572;DHT22;5334;48.928;12.704;2023-07-13T06:50:57;20.60;99.90
10572;DHT22;5334;48.928;12.704;2023-07-13T06:53:23;20.60;99.90
10572;DHT22;5334;48.928;12.704;2023-07-13T06:55:49;20.50;99.90
10572;DHT22;5334;48.928;12.704;2023-07-13T06:58:16;20.50;99.90
10572;DHT22;5334;48.928;12.704;2023-07-13T07:00:42;20.60;99.90
10572;DHT22;5334;48.928;12.704;2023-07-13T07:03:08;20.70;99.90
10572;DHT22;5334;48.928;12.704;2023-07-13T07:05:33;20.90;99.90
10572;DHT22;5334;48.928;12.704;2023-07-13T07:07:59;21.30;99.90
10572;DHT22;5334;48.928;12.704;2023-07-13T07:10:26;21.30;99.90
10572;DHT22;5334;48.928;12.704;2023-07-13T07:12:51;21.40;99.90
10572;DHT22;5334;48.928;12.704;2023-07-13T07:15:17;21.30;99.90
10572;DHT22;5334;48.928;12.704;2023-07-13T07:17:43;21.60;99.90
10572;DHT22;5334;48.928;12.704;2023-07-13T07:20:10;22.00;99.90
10572;DHT22;5334;48.928;12.704;2023-07-13T07:22:35;22.50;99.90
10572;DHT22;5334;48.928;12.704;2023-07-13T07:25:01;23.00;99.90
10572;DHT22;5334;48.928;12.704;2023-07-13T07:27:27;23.20;99.90
10572;DHT22;5334;48.928;12.704;2023-07-13T07:29:53;23.40;99.90
10572;DHT22;5334;48.928;12.704;2023-07-13T07:32:19;23.60;99.90
10572;DHT22;5334;48.928;12.704;2023-07-13T07:34:45;24.00;99.90
10572;DHT22;5334;48.928;12.704;2023-07-13T07:37:13;24.20;99.90
10572;DHT22;5334;48.928;12.704;2023-07-13T07:39:39;24.40;99.90
10572;DHT22;5334;48.928;12.704;2023-07-13T07:42:05;24.40;99.90
10572;DHT22;5334;48.928;12.704;2023-07-13T07:44:31;24.50;99.90
10572;DHT22;5334;48.928;12.704;2023-07-13T07:46:57;24.80;99.90
10572;DHT22;5334;48.928;12.704;2023-07-13T07:49:23;24.80;99.90
10572;DHT22;5334;48.928;12.704;2023-07-13T07:51:49;24.80;99.90
10572;DHT22;5334;48.928;12.704;2023-07-13T07:54:16;24.80;99.90
10572;DHT22;5334;48.928;12.704;2023-07-13T07:56:42;24.80;99.90
10572;DHT22;5334;48.928;12.704;2023-07-13T07:59:08;25.00;99.90
10572;DHT22;5334;48.928;12.704;2023-07-13T08:01:33;24.80;99.90
10572;DHT22;5334;48.928;12.704;2023-07-13T08:03:59;24.20;99.90
10572;DHT22;5334;48.928;12.704;2023-07-13T08:06:25;24.20;99.90
10572;DHT22;5334;48.928;12.704;2023-07-13T08:08:50;24.50;99.90
10572;DHT22;5334;48.928;12.704;2023-07-13T08:11:16;24.40;99.90
10572;DHT22;5334;48.928;12.704;2023-07-13T08:13:42;24.10;99.90
10572;DHT22;5334;48.928;12.704;2023-07-13T08:16:08;23.80;99.90
10572;DHT22;5334;48.928;12.704;2023-07-13T08:18:34;23.80;99.90
10572;DHT22;5334;48.928;12.704;2023-07-13T08:21:06;24.00;99.90
10572;DHT22;5334;48.928;12.704;2023-07-13T08:23:33;24.10;99.90
10572;DHT22;5334;48.928;12.704;2023-07-13T08:25:59;24.10;99.90
10572;DHT22;5334;48.928;12.704;2023-07-13T08:28:27;24.10;99.90
10572;DHT22;5334;48.928;12.704;2023-07-13T08:30:53;24.20;99.90
10572;DHT22;5334;48.928;12.704;2023-07-13T08:33:20;24.60;99.90
10572;DHT22;5334;48.928;12.704;2023-07-13T08:35:50;25.10;99.90
10572;DHT22;5334;48.928;12.704;2023-07-13T08:38:16;25.40;99.90
10572;DHT22;5334;48.928;12.704;2023-07-13T08:40:42;25.60;99.90
10572;DHT22;5334;48.928;12.704;2023-07-13T08:43:20;25.40;99.90
10572;DHT22;5334;48.928;12.704;2023-07-13T08:45:56;25.20;99.90
10572;DHT22;5334;48.928;12.704;2023-07-13T08:48:34;24.70;99.90
10572;DHT22;5334;48.928;12.704;2023-07-13T08:54:44;24.70;99.90
10572;DHT22;5334;48.928;12.704;2023-07-13T08:57:15;24.90;99.90
10572;DHT22;5334;48.928;12.704;2023-07-13T08:59:42;25.00;99.90
10572;DHT22;5334;48.928;12.704;2023-07-13T09:02:14;25.40;99.90
10572;DHT22;5334;48.928;12.704;2023-07-13T09:04:57;25.40;99.70
10572;DHT22;5334;48.928;12.704;2023-07-13T09:10:31;25.10;98.00
10572;DHT22;5334;48.928;12.704;2023-07-13T09:15:47;25.30;98.10
10572;DHT22;5334;48.928;12.704;2023-07-13T09:18:53;25.60;98.20
10572;DHT22;5334;48.928;12.704;2023-07-13T09:21:42;25.80;95.40
10572;DHT22;5334;48.928;12.704;2023-07-13T09:24:38;25.90;95.40
10572;DHT22;5334;48.928;12.704;2023-07-13T09:27:17;25.60;95.50
10572;DHT22;5334;48.928;12.704;2023-07-13T09:29:48;25.40;96.30
10572;DHT22;5334;48.928;12.704;2023-07-13T09:32:18;25.80;96.20
10572;DHT22;5334;48.928;12.704;2023-07-13T09:34:55;26.50;95.40
10572;DHT22;5334;48.928;12.704;2023-07-13T09:37:22;26.60;93.70
10572;DHT22;5334;48.928;12.704;2023-07-13T09:39:49;26.40;91.80
10572;DHT22;5334;48.928;12.704;2023-07-13T09:42:19;25.80;92.70
10572;DHT22;5334;48.928;12.704;2023-07-13T09:44:58;25.40;94.30
10572;DHT22;5334;48.928;12.704;2023-07-13T09:47:27;25.40;95.40
10572;DHT22;5334;48.928;12.704;2023-07-13T09:50:12;25.40;95.80
10572;DHT22;5334;48.928;12.704;2023-07-13T09:52:46;25.80;93.00
10572;DHT22;5334;48.928;12.704;2023-07-13T09:57:56;26.50;92.00
10572;DHT22;5334;48.928;12.704;2023-07-13T10:00:27;26.70;90.80
10572;DHT22;5334;48.928;12.704;2023-07-13T10:03:01;26.80;89.50
10572;DHT22;5334;48.928;12.704;2023-07-13T10:05:40;27.20;90.30
10572;DHT22;5334;48.928;12.704;2023-07-13T10:08:16;27.10;89.00
10572;DHT22;5334;48.928;12.704;2023-07-13T10:10:44;26.60;84.80
10572;DHT22;5334;48.928;12.704;2023-07-13T10:13:30;26.30;87.00
10572;DHT22;5334;48.928;12.704;2023-07-13T10:15:58;26.40;88.20
10572;DHT22;5334;48.928;12.704;2023-07-13T10:18:25;26.40;89.80
10572;DHT22;5334;48.928;12.704;2023-07-13T10:20:58;26.40;89.70
10572;DHT22;5334;48.928;12.704;2023-07-13T10:23:31;26.60;89.80
10572;DHT22;5334;48.928;12.704;2023-07-13T10:25:59;26.40;90.10
10572;DHT22;5334;48.928;12.704;2023-07-13T10:28:31;26.00;90.30
10572;DHT22;5334;48.928;12.704;2023-07-13T10:30:59;25.80;89.10
10572;DHT22;5334;48.928;12.704;2023-07-13T10:33:26;25.70;89.60
10572;DHT22;5334;48.928;12.704;2023-07-13T10:35:57;25.80;90.80
10572;DHT22;5334;48.928;12.704;2023-07-13T10:38:25;26.10;87.20
10572;DHT22;5334;48.928;12.704;2023-07-13T10:41:01;26.40;86.00
10572;DHT22;5334;48.928;12.704;2023-07-13T10:43:35;26.60;84.40
10572;DHT22;5334;48.928;12.704;2023-07-13T10:46:06;26.90;84.40
10572;DHT22;5334;48.928;12.704;2023-07-13T10:48:34;27.10;83.20
10572;DHT22;5334;48.928;12.704;2023-07-13T10:51:04;27.20;81.90
10572;DHT22;5334;48.928;12.704;2023-07-13T10:53:34;27.40;82.90
10572;DHT22;5334;48.928;12.704;2023-07-13T10:56:08;27.50;80.40
10572;DHT22;5334;48.928;12.704;2023-07-13T10:58:44;27.60;81.00
10572;DHT22;5334;48.928;12.704;2023-07-13T11:01:16;27.60;81.20
10572;DHT22;5334;48.928;12.704;2023-07-13T11:04:00;27.50;77.30
10572;DHT22;5334;48.928;12.704;2023-07-13T11:08:56;27.70;77.10
10572;DHT22;5334;48.928;12.704;2023-07-13T11:23:45;27.60;76.50
10572;DHT22;5334;48.928;12.704;2023-07-13T11:26:39;27.80;76.00
10572;DHT22;5334;48.928;12.704;2023-07-13T11:31:51;28.60;76.00
10572;DHT22;5334;48.928;12.704;2023-07-13T11:34:21;28.70;76.70
10572;DHT22;5334;48.928;12.704;2023-07-13T11:36:49;29.00;75.40
10572;DHT22;5334;48.928;12.704;2023-07-13T11:39:19;28.90;74.70
10572;DHT22;5334;48.928;12.704;2023-07-13T11:41:59;28.60;72.80
10572;DHT22;5334;48.928;12.704;2023-07-13T11:44:28;28.40;75.80
10572;DHT22;5334;48.928;12.704;2023-07-13T11:46:56;28.40;74.80
10572;DHT22;5334;48.928;12.704;2023-07-13T11:49:24;28.60;72.00
10572;DHT22;5334;48.928;12.704;2023-07-13T11:51:52;28.90;70.70
10572;DHT22;5334;48.928;12.704;2023-07-13T11:56:50;29.10;70.40
10572;DHT22;5334;48.928;12.704;2023-07-13T11:59:16;29.00;67.60
10572;DHT22;5334;48.928;12.704;2023-07-13T12:01:46;28.90;67.80
10572;DHT22;5334;48.928;12.704;2023-07-13T12:06:58;29.00;68.60
10572;DHT22;5334;48.928;12.704;2023-07-13T12:09:28;29.20;66.80
10572;DHT22;5334;48.928;12.704;2023-07-13T12:11:56;29.00;68.20
10572;DHT22;5334;48.928;12.704;2023-07-13T12:14:23;29.00;66.80
10572;DHT22;5334;48.928;12.704;2023-07-13T12:16:50;28.80;68.50
10572;DHT22;5334;48.928;12.704;2023-07-13T12:19:21;28.70;67.50
10572;DHT22;5334;48.928;12.704;2023-07-13T12:21:48;28.60;69.00
10572;DHT22;5334;48.928;12.704;2023-07-13T12:24:19;28.60;68.00
10572;DHT22;5334;48.928;12.704;2023-07-13T12:27:00;29.00;68.40
10572;DHT22;5334;48.928;12.704;2023-07-13T12:29:27;29.30;66.70
10572;DHT22;5334;48.928;12.704;2023-07-13T12:31:53;28.80;66.20
10572;DHT22;5334;48.928;12.704;2023-07-13T12:34:21;28.90;67.00
10572;DHT22;5334;48.928;12.704;2023-07-13T12:37:00;29.10;65.90
10572;DHT22;5334;48.928;12.704;2023-07-13T12:39:36;29.30;66.60
10572;DHT22;5334;48.928;12.704;2023-07-13T12:47:13;30.30;64.40
10572;DHT22;5334;48.928;12.704;2023-07-13T12:49:48;30.60;62.60
10572;DHT22;5334;48.928;12.704;2023-07-13T12:52:23;30.30;61.60
10572;DHT22;5334;48.928;12.704;2023-07-13T12:55:17;29.90;61.70
10572;DHT22;5334;48.928;12.704;2023-07-13T12:57:50;30.00;58.50
10572;DHT22;5334;48.928;12.704;2023-07-13T13:00:23;29.80;58.00
10572;DHT22;5334;48.928;12.704;2023-07-13T13:02:55;29.40;58.00
10572;DHT22;5334;48.928;12.704;2023-07-13T13:05:21;29.20;58.20
10572;DHT22;5334;48.928;12.704;2023-07-13T13:07:49;29.20;58.10
10572;DHT22;5334;48.928;12.704;2023-07-13T13:10:15;29.20;56.50
10572;DHT22;5334;48.928;12.704;2023-07-13T13:12:41;29.20;57.20
10572;DHT22;5334;48.928;12.704;2023-07-13T13:15:12;29.40;56.60
10572;DHT22;5334;48.928;12.704;2023-07-13T13:17:38;29.70;55.80
10572;DHT22;5334;48.928;12.704;2023-07-13T13:20:18;29.50;55.30
10572;DHT22;5334;48.928;12.704;2023-07-13T13:22:44;29.30;55.30
10572;DHT22;5334;48.928;12.704;2023-07-13T13:25:11;29.40;57.30
10572;DHT22;5334;48.928;12.704;2023-07-13T13:27:37;29.70;57.80
10572;DHT22;5334;48.928;12.704;2023-07-13T13:30:03;29.80;55.80
10572;DHT22;5334;48.928;12.704;2023-07-13T13:32:29;29.90;55.10
10572;DHT22;5334;48.928;12.704;2023-07-13T13:34:54;30.00;55.90
10572;DHT22;5334;48.928;12.704;2023-07-13T13:37:22;30.10;54.80
10572;DHT22;5334;48.928;12.704;2023-07-13T13:39:49;29.90;52.80
10572;DHT22;5334;48.928;12.704;2023-07-13T13:42:16;30.00;53.60
10572;DHT22;5334;48.928;12.704;2023-07-13T13:44:41;29.70;53.60
10572;DHT22;5334;48.928;12.704;2023-07-13T13:47:21;29.70;54.30
10572;DHT22;5334;48.928;12.704;2023-07-13T13:49:49;29.20;53.30
10572;DHT22;5334;48.928;12.704;2023-07-13T13:52:15;29.00;52.90
10572;DHT22;5334;48.928;12.704;2023-07-13T13:54:41;28.90;52.80
10572;DHT22;5334;48.928;12.704;2023-07-13T13:57:08;28.80;52.20
10572;DHT22;5334;48.928;12.704;2023-07-13T13:59:34;28.50;53.40
10572;DHT22;5334;48.928;12.704;2023-07-13T14:04:37;28.70;53.40
10572;DHT22;5334;48.928;12.704;2023-07-13T14:07:03;28.70;52.50
10572;DHT22;5334;48.928;12.704;2023-07-13T14:09:29;28.30;51.80
10572;DHT22;5334;48.928;12.704;2023-07-13T14:11:55;28.30;54.00
10572;DHT22;5334;48.928;12.704;2023-07-13T14:14:23;28.30;54.40
10572;DHT22;5334;48.928;12.704;2023-07-13T14:16:52;28.60;53.40
10572;DHT22;5334;48.928;12.704;2023-07-13T14:19:22;28.50;51.60
10572;DHT22;5334;48.928;12.704;2023-07-13T14:21:48;28.30;52.00
10572;DHT22;5334;48.928;12.704;2023-07-13T14:24:15;28.20;53.00
10572;DHT22;5334;48.928;12.704;2023-07-13T14:26:41;28.10;53.50
10572;DHT22;5334;48.928;12.704;2023-07-13T14:29:17;28.00;53.70
10572;DHT22;5334;48.928;12.704;2023-07-13T14:31:44;27.90;54.50
10572;DHT22;5334;48.928;12.704;2023-07-13T14:34:11;27.90;54.40
10572;DHT22;5334;48.928;12.704;2023-07-13T14:36:40;28.20;54.40
10572;DHT22;5334;48.928;12.704;2023-07-13T14:39:19;28.60;53.20
10572;DHT22;5334;48.928;12.704;2023-07-13T14:41:45;28.40;51.50
10572;DHT22;5334;48.928;12.704;2023-07-13T14:44:15;28.30;51.30
10572;DHT22;5334;48.928;12.704;2023-07-13T14:46:42;28.20;50.50
10572;DHT22;5334;48.928;12.704;2023-07-13T14:49:31;28.10;51.60
10572;DHT22;5334;48.928;12.704;2023-07-13T14:52:00;28.10;50.70
10572;DHT22;5334;48.928;12.704;2023-07-13T14:54:26;27.80;50.90
10572;DHT22;5334;48.928;12.704;2023-07-13T14:56:53;27.70;52.10
10572;DHT22;5334;48.928;12.704;2023-07-13T14:59:18;27.60;51.80
10572;DHT22;5334;48.928;12.704;2023-07-13T15:01:45;27.70;52.20
10572;DHT22;5334;48.928;12.704;2023-07-13T15:04:10;28.00;51.50
10572;DHT22;5334;48.928;12.704;2023-07-13T15:06:57;27.90;50.90
10572;DHT22;5334;48.928;12.704;2023-07-13T15:09:25;27.80;51.20
10572;DHT22;5334;48.928;12.704;2023-07-13T15:11:58;27.70;53.00
10572;DHT22;5334;48.928;12.704;2023-07-13T15:14:25;27.70;57.40
10572;DHT22;5334;48.928;12.704;2023-07-13T15:16:53;27.80;51.60
10572;DHT22;5334;48.928;12.704;2023-07-13T15:19:19;27.70;50.40
10572;DHT22;5334;48.928;12.704;2023-07-13T15:21:47;27.80;51.10
10572;DHT22;5334;48.928;12.704;2023-07-13T15:24:14;28.00;52.20
10572;DHT22;5334;48.928;12.704;2023-07-13T15:26:41;28.30;52.40
10572;DHT22;5334;48.928;12.704;2023-07-13T15:29:11;28.50;50.80
10572;DHT22;5334;48.928;12.704;2023-07-13T15:31:37;28.50;48.40
10572;DHT22;5334;48.928;12.704;2023-07-13T15:34:16;28.50;49.60
10572;DHT22;5334;48.928;12.704;2023-07-13T15:36:44;28.40;48.90
10572;DHT22;5334;48.928;12.704;2023-07-13T15:39:14;28.10;48.00
10572;DHT22;5334;48.928;12.704;2023-07-13T15:41:42;28.00;49.30
10572;DHT22;5334;48.928;12.704;2023-07-13T15:44:29;28.00;49.50
10572;DHT22;5334;48.928;12.704;2023-07-13T15:46:56;27.90;48.70
10572;DHT22;5334;48.928;12.704;2023-07-13T15:49:22;27.80;49.80
10572;DHT22;5334;48.928;12.704;2023-07-13T15:51:48;27.70;49.20
10572;DHT22;5334;48.928;12.704;2023-07-13T15:54:16;27.60;50.10
10572;DHT22;5334;48.928;12.704;2023-07-13T15:56:42;27.60;50.50
10572;DHT22;5334;48.928;12.704;2023-07-13T15:59:11;27.70;50.80
10572;DHT22;5334;48.928;12.704;2023-07-13T16:01:40;27.70;50.80
10572;DHT22;5334;48.928;12.704;2023-07-13T16:04:08;27.80;50.70
10572;DHT22;5334;48.928;12.704;2023-07-13T16:06:36;27.80;49.60
10572;DHT22;5334;48.928;12.704;2023-07-13T16:09:03;27.80;49.50
10572;DHT22;5334;48.928;12.704;2023-07-13T16:11:36;27.80;49.30
10572;DHT22;5334;48.928;12.704;2023-07-13T16:14:03;27.50;48.30
10572;DHT22;5334;48.928;12.704;2023-07-13T16:16:31;27.30;49.40
10572;DHT22;5334;48.928;12.704;2023-07-13T16:18:59;27.40;50.00
10572;DHT22;5334;48.928;12.704;2023-07-13T16:21:29;27.40;48.70
10572;DHT22;5334;48.928;12.704;2023-07-13T16:23:56;27.30;49.00